Time;durP1;ratioP1;P1;durP2;ratioP2;P2;SDS_P1;SDS_P2;PMS_P1;PMS_P2;Temp;Humidity;BMP_temperature;BMP_pressure;BME280_temperature;BME280_humidity;BME280_pressure;Samples;Min_cycle;Max_cycle;Signal;HPM_P1;HPM_P2
2022/05/22 00:00:17;;;;;;;;;;;;;;;24.23;56.53;98821.16;2071611;28;19932;-47
2022/05/22 00:01:18;;;;;;;;;;;;;;;24.22;56.69;98814.94;2070073;28;20032;-51
2022/05/22 00:02:19;;;;;;;;;;;;;;;24.22;56.66;98823.06;2070654;28;19925;-53
2022/05/22 00:03:21;;;;;;;;;;;;;;;24.22;56.61;98819.53;2071977;28;19925;-51
2022/05/22 00:04:23;;;;;;;;;;;;;;;24.21;56.68;98823.28;2073370;28;19929;-49
2022/05/22 00:05:25;;;;;;;;;;;;;;;24.21;56.50;98816.00;2073651;28;20403;-48
2022/05/22 00:06:26;;;;;;;;;;;;;;;24.21;56.76;98817.88;2071687;28;19926;-48
2022/05/22 00:07:28;;;;;;;;;;;;;;;24.18;56.60;98819.19;2070630;28;19949;-50
2022/05/22 00:08:28;;;;;;;;;;;;;;;24.19;56.88;98804.56;2071238;28;19933;-52
2022/05/22 00:09:30;;;;;;;;;;;;;;;24.21;56.65;98807.88;2071254;28;19925;-50
2022/05/22 00:10:30;;;;;;;;;;;;;;;24.18;56.80;98808.34;2072399;28;20387;-50
2022/05/22 00:11:32;;;;;;;;;;;;;;;24.18;56.84;98813.78;2071907;28;19936;-49
2022/05/22 00:12:33;;;;;;;;;;;;;;;24.20;56.58;98806.22;2071815;28;19930;-51
2022/05/22 00:13:35;;;;;;;;;;;;;;;24.19;56.69;98796.44;2073919;28;19929;-50
2022/05/22 00:14:36;;;;;;;;;;;;;;;24.19;56.71;98804.56;2069992;28;19925;-47
2022/05/22 00:16:36;;;;;;;;;;;;;;;24.19;56.69;98801.84;2073176;28;19956;-52
2022/05/22 00:16:59;;;;;;;;;;;;;;;24.19;56.69;98810.00;2073601;28;19930;-51
2022/05/22 00:18:00;;;;;;;;;;;;;;;24.19;56.80;98801.84;2074267;28;19925;-48
2022/05/22 00:19:01;;;;;;;;;;;;;;;24.19;56.77;98810.00;2072106;28;19926;-48
2022/05/22 00:20:05;;;;;;;;;;;;;;;24.19;56.51;98804.56;2071793;28;19935;-50
2022/05/22 00:21:06;;;;;;;;;;;;;;;24.18;56.74;98808.34;2071647;28;19933;-49
2022/05/22 00:22:08;;;;;;;;;;;;;;;24.18;56.75;98804.78;2068807;28;19987;-49
2022/05/22 00:23:08;;;;;;;;;;;;;;;24.19;56.50;98799.16;2072156;28;19971;-49
2022/05/22 00:24:11;;;;;;;;;;;;;;;24.18;56.73;98802.09;2070486;28;20474;-50
2022/05/22 00:25:12;;;;;;;;;;;;;;;24.19;56.73;98792.91;2069432;28;19937;-51
2022/05/22 00:26:13;;;;;;;;;;;;;;;24.19;56.76;98806.47;2071224;28;19969;-51
2022/05/22 00:27:15;;;;;;;;;;;;;;;24.18;56.53;98807.50;2070957;28;19929;-51
2022/05/22 00:28:15;;;;;;;;;;;;;;;24.19;56.53;98804.56;2072405;28;19933;-50
2022/05/22 00:29:18;;;;;;;;;;;;;;;24.18;56.60;98805.63;2072240;28;19968;-48
2022/05/22 00:30:19;;;;;;;;;;;;;;;24.19;56.61;98801.03;2071182;28;19956;-50
2022/05/22 00:31:20;;;;;;;;;;;;;;;24.17;56.63;98800.44;2073068;28;19964;-50
2022/05/22 00:32:21;;;;;;;;;;;;;;;24.18;56.75;98797.50;2070145;28;20378;-49
2022/05/22 00:33:22;;;;;;;;;;;;;;;24.18;56.58;98796.66;2071624;28;19932;-50
2022/05/22 00:34:24;;;;;;;;;;;;;;;24.15;56.91;98795.25;2070593;28;20518;-48
2022/05/22 00:35:25;;;;;;;;;;;;;;;24.16;56.64;98794.19;2069932;28;19929;-49
2022/05/22 00:36:27;;;;;;;;;;;;;;;24.16;56.67;98794.19;2073077;28;19926;-50
2022/05/22 00:37:28;;;;;;;;;;;;;;;24.15;56.83;98789.81;2070537;28;19956;-50
2022/05/22 00:38:29;;;;;;;;;;;;;;;24.15;56.63;98794.44;2072980;28;19988;-50
2022/05/22 00:39:30;;;;;;;;;;;;;;;24.14;56.70;98782.75;2074245;28;19972;-47
2022/05/22 00:40:32;;;;;;;;;;;;;;;24.16;56.78;98785.25;2074389;28;19925;-46
2022/05/22 00:41:33;;;;;;;;;;;;;;;24.15;56.73;98786.28;2069416;28;19999;-47
2022/05/22 00:42:34;;;;;;;;;;;;;;;24.15;56.81;98787.13;2072206;28;19934;-49
2022/05/22 00:43:36;;;;;;;;;;;;;;;24.15;56.70;98781.69;2072151;28;19933;-49
2022/05/22 00:44:38;;;;;;;;;;;;;;;24.17;56.66;98784.19;2072862;28;19991;-48
2022/05/22 00:45:38;;;;;;;;;;;;;;;24.15;56.84;98781.69;2070373;28;19925;-48
2022/05/22 00:46:40;;;;;;;;;;;;;;;24.15;56.80;98784.41;2073781;28;19965;-49
2022/05/22 00:47:41;;;;;;;;;;;;;;;24.16;56.70;98777.94;2071021;28;19926;-51
2022/05/22 00:48:43;;;;;;;;;;;;;;;24.15;56.76;98781.69;2072144;28;19925;-49
2022/05/22 00:49:44;;;;;;;;;;;;;;;24.15;56.57;98776.28;2072298;28;20002;-48
2022/05/22 00:50:47;;;;;;;;;;;;;;;24.15;56.67;98778.16;2071679;28;20553;-46
2022/05/22 00:51:50;;;;;;;;;;;;;;;24.14;56.67;98784.66;2073350;28;19925;-46
2022/05/22 00:52:53;;;;;;;;;;;;;;;24.14;56.80;98774.63;2071814;28;20365;-51
2022/05/22 00:53:55;;;;;;;;;;;;;;;24.13;56.59;98775.72;2072049;28;19929;-47
2022/05/22 00:54:59;;;;;;;;;;;;;;;24.12;56.74;98776.75;2063903;28;19926;-52
2022/05/22 00:56:00;;;;;;;;;;;;;;;24.15;56.58;98780.88;2072278;28;19988;-51
2022/05/22 00:57:05;;;;;;;;;;;;;;;24.13;56.79;98774.88;2067192;28;19925;-49
2022/05/22 00:58:10;;;;;;;;;;;;;;;24.12;56.60;98774.03;2071278;28;19979;-53
2022/05/22 00:59:16;;;;;;;;;;;;;;;24.09;56.86;98772.63;2068958;28;19933;-50
2022/05/22 01:00:19;;;;;;;;;;;;;;;24.13;56.61;98778.41;2075101;28;19932;-52
2022/05/22 01:01:19;;;;;;;;;;;;;;;24.14;56.66;98779.25;2069114;28;20418;-49
2022/05/22 01:02:21;;;;;;;;;;;;;;;24.15;56.61;98776.28;2070828;28;20020;-51
2022/05/22 01:03:29;;;;;;;;;;;;;;;24.14;56.69;98776.53;2070758;28;19933;-48
2022/05/22 01:04:31;;;;;;;;;;;;;;;24.13;56.68;98769.47;2073270;28;20016;-49
2022/05/22 01:05:32;;;;;;;;;;;;;;;24.14;56.79;98769.22;2071448;28;19972;-46
2022/05/22 01:06:36;;;;;;;;;;;;;;;24.12;56.75;98771.34;2073156;28;19925;-52
2022/05/22 01:07:39;;;;;;;;;;;;;;;24.11;56.79;98766.97;2071795;28;19925;-51
2022/05/22 01:08:39;;;;;;;;;;;;;;;24.12;56.94;98771.34;2072013;28;19979;-50
2022/05/22 01:09:41;;;;;;;;;;;;;;;24.09;56.94;98764.50;2070977;28;19999;-49
2022/05/22 01:10:43;;;;;;;;;;;;;;;24.10;56.82;98765.34;2072222;28;19944;-49
2022/05/22 01:11:45;;;;;;;;;;;;;;;24.13;56.72;98772.19;2069474;28;20495;-46
2022/05/22 01:12:46;;;;;;;;;;;;;;;24.11;56.59;98766.97;2073068;28;19925;-50
2022/05/22 01:13:52;;;;;;;;;;;;;;;24.10;56.79;98762.63;2067752;28;20438;-50
2022/05/22 01:14:52;;;;;;;;;;;;;;;24.11;56.71;98768.88;2071428;28;19932;-48
2022/05/22 01:15:54;;;;;;;;;;;;;;;24.12;56.89;98767.81;2070921;28;19937;-50
2022/05/22 01:16:55;;;;;;;;;;;;;;;24.12;56.63;98762.38;2070640;28;19930;-53
2022/05/22 01:17:56;;;;;;;;;;;;;;;24.13;56.51;98761.34;2070192;28;19936;-50
2022/05/22 01:18:57;;;;;;;;;;;;;;;24.10;56.83;98757.22;2073583;28;19976;-48
2022/05/22 01:20:00;;;;;;;;;;;;;;;24.10;56.83;98757.22;2070851;28;20267;-49
2022/05/22 01:21:00;;;;;;;;;;;;;;;24.09;56.79;98755.56;2073839;28;19930;-48
2022/05/22 01:22:05;;;;;;;;;;;;;;;24.11;56.79;98753.44;2070830;28;19925;-48
2022/05/22 01:23:06;;;;;;;;;;;;;;;24.12;56.65;98752.38;2070972;28;19932;-46
2022/05/22 01:24:08;;;;;;;;;;;;;;;24.10;56.69;98754.50;2074235;28;19939;-47
2022/05/22 01:25:09;;;;;;;;;;;;;;;24.11;56.76;98761.56;2071867;28;19932;-48
2022/05/22 01:26:11;;;;;;;;;;;;;;;24.12;56.64;98760.50;2068926;28;20374;-49
2022/05/22 01:27:15;;;;;;;;;;;;;;;24.10;56.73;98754.50;2072041;28;19932;-47
2022/05/22 01:28:18;;;;;;;;;;;;;;;24.09;56.67;98761.78;2070913;28;19952;-50
2022/05/22 01:29:19;;;;;;;;;;;;;;;24.10;56.89;98759.94;2071784;28;19972;-47
2022/05/22 01:30:22;;;;;;;;;;;;;;;24.11;56.81;98758.03;2072497;28;19940;-49
2022/05/22 01:31:22;;;;;;;;;;;;;;;24.09;56.67;98750.13;2069466;28;20505;-50
2022/05/22 01:32:24;;;;;;;;;;;;;;;24.10;56.84;98754.50;2071258;28;19926;-48
2022/05/22 01:33:24;;;;;;;;;;;;;;;24.10;56.68;98751.78;2071051;28;19936;-49
2022/05/22 01:34:26;;;;;;;;;;;;;;;24.09;56.88;98755.56;2071146;28;20384;-45
2022/05/22 01:35:28;;;;;;;;;;;;;;;24.09;56.66;98750.13;2070933;28;19971;-48
2022/05/22 01:36:30;;;;;;;;;;;;;;;24.08;56.75;98743.88;2072681;28;20478;-47
2022/05/22 01:37:32;;;;;;;;;;;;;;;24.11;56.56;98747.19;2072144;28;19994;-49
2022/05/22 01:38:34;;;;;;;;;;;;;;;24.09;56.82;98742.00;2069479;28;19933;-52
2022/05/22 01:39:34;;;;;;;;;;;;;;;24.08;56.92;98745.78;2071867;28;19934;-51
2022/05/22 01:40:36;;;;;;;;;;;;;;;24.08;56.90;98748.50;2072677;28;20337;-47
2022/05/22 01:41:37;;;;;;;;;;;;;;;24.08;56.72;98743.06;2071551;28;19925;-49
2022/05/22 01:42:38;;;;;;;;;;;;;;;24.08;56.78;98743.88;2070020;28;20060;-48
2022/05/22 01:43:39;;;;;;;;;;;;;;;24.08;56.79;98743.06;2073306;28;19972;-49
2022/05/22 01:44:40;;;;;;;;;;;;;;;24.08;56.72;98743.06;2070764;28;20283;-48
2022/05/22 01:45:42;;;;;;;;;;;;;;;24.12;56.54;98740.72;2071698;28;19929;-48
2022/05/22 01:46:44;;;;;;;;;;;;;;;24.09;56.81;98748.25;2071461;28;20451;-51
2022/05/22 01:47:45;;;;;;;;;;;;;;;24.09;56.74;98747.41;2069325;28;19933;-48
2022/05/22 01:48:46;;;;;;;;;;;;;;;24.10;56.92;98740.97;2072830;28;20482;-49
2022/05/22 01:49:47;;;;;;;;;;;;;;;24.11;56.95;98744.50;2070653;28;21062;-50
2022/05/22 01:50:49;;;;;;;;;;;;;;;24.11;56.80;98748.00;2070004;28;19930;-52
2022/05/22 01:51:50;;;;;;;;;;;;;;;24.10;56.80;98740.97;2070940;28;19925;-53
2022/05/22 01:52:53;;;;;;;;;;;;;;;24.12;56.59;98738.81;2069861;28;19956;-48
2022/05/22 01:53:54;;;;;;;;;;;;;;;24.12;56.52;98738.00;2070369;28;19953;-45
2022/05/22 01:54:55;;;;;;;;;;;;;;;24.11;56.67;98739.06;2072025;28;19933;-47
2022/05/22 01:55:56;;;;;;;;;;;;;;;24.05;56.77;98732.72;2071221;28;19925;-46
2022/05/22 01:56:57;;;;;;;;;;;;;;;24.06;56.88;98737.06;2069618;28;20049;-48
2022/05/22 01:57:58;;;;;;;;;;;;;;;24.09;56.58;98739.28;2070394;28;19973;-49
2022/05/22 01:59:00;;;;;;;;;;;;;;;24.07;56.79;98741.41;2072117;28;19948;-48
2022/05/22 02:00:00;;;;;;;;;;;;;;;24.05;56.73;98738.13;2072210;28;20584;-50
2022/05/22 02:01:02;;;;;;;;;;;;;;;24.06;56.88;98737.88;2071809;28;19926;-46
2022/05/22 02:02:02;;;;;;;;;;;;;;;24.05;56.98;98738.13;2071045;28;19925;-47
2022/05/22 02:03:04;;;;;;;;;;;;;;;24.08;56.95;98743.06;2071471;28;19929;-50
2022/05/22 02:04:05;;;;;;;;;;;;;;;24.08;56.75;98733.06;2073213;28;19933;-46
2022/05/22 02:05:07;;;;;;;;;;;;;;;24.08;56.78;98738.47;2068819;28;19993;-49
2022/05/22 02:06:08;;;;;;;;;;;;;;;24.08;56.66;98738.47;2072098;28;19960;-49
2022/05/22 02:08:30;;;;;;;;;;;;;;;24.05;56.97;98740.84;2069974;28;19964;-47
2022/05/22 02:09:31;;;;;;;;;;;;;;;24.04;56.92;98729.19;2072252;28;20019;-47
2022/05/22 02:10:33;;;;;;;;;;;;;;;24.07;56.68;98731.41;2071054;28;19925;-47
2022/05/22 02:11:35;;;;;;;;;;;;;;;24.07;56.86;98738.69;2070468;28;19940;-47
2022/05/22 02:12:35;;;;;;;;;;;;;;;24.07;56.86;98739.53;2072335;28;19936;-46
2022/05/22 02:13:38;;;;;;;;;;;;;;;24.07;56.69;98735.97;2070532;28;19925;-46
2022/05/22 02:14:38;;;;;;;;;;;;;;;24.07;56.86;98730.56;2071410;28;19929;-48
2022/05/22 02:15:40;;;;;;;;;;;;;;;24.06;56.92;98729.75;2068496;28;19932;-50
2022/05/22 02:16:40;;;;;;;;;;;;;;;24.08;56.82;98732.22;2069919;28;20383;-47
2022/05/22 02:17:42;;;;;;;;;;;;;;;24.06;56.67;98724.31;2069867;28;19925;-46
2022/05/22 02:18:44;;;;;;;;;;;;;;;24.06;56.94;98728.94;2068614;28;19936;-46
2022/05/22 02:19:45;;;;;;;;;;;;;;;24.08;56.75;98727.63;2073681;28;19925;-47
2022/05/22 02:20:47;;;;;;;;;;;;;;;24.07;56.63;98726.00;2069675;28;19980;-48
2022/05/22 02:21:48;;;;;;;;;;;;;;;24.07;56.77;98723.28;2069631;28;19925;-46
2022/05/22 02:22:51;;;;;;;;;;;;;;;24.09;56.70;98725.75;2071232;28;19965;-47
2022/05/22 02:23:54;;;;;;;;;;;;;;;24.07;56.69;98730.56;2070375;28;19926;-46
2022/05/22 02:24:55;;;;;;;;;;;;;;;24.06;56.81;98726.22;2071860;28;19932;-45
2022/05/22 02:25:57;;;;;;;;;;;;;;;24.07;56.77;98720.56;2069459;28;20458;-46
2022/05/22 02:26:57;;;;;;;;;;;;;;;24.06;56.89;98720.81;2071175;28;19925;-48
2022/05/22 02:27:59;;;;;;;;;;;;;;;24.06;56.67;98721.63;2069879;28;20342;-47
2022/05/22 02:28:59;;;;;;;;;;;;;;;24.05;56.72;98719.97;2070654;28;19973;-47
2022/05/22 02:30:01;;;;;;;;;;;;;;;24.04;56.89;98720.19;2073580;28;20343;-46
2022/05/22 02:31:02;;;;;;;;;;;;;;;24.04;56.89;98721.06;2071108;28;19973;-48
2022/05/22 02:32:04;;;;;;;;;;;;;;;24.05;56.90;98719.16;2072423;28;20482;-47
2022/05/22 02:33:05;;;;;;;;;;;;;;;24.02;56.83;98716.94;2070854;28;19965;-47
2022/05/22 02:34:06;;;;;;;;;;;;;;;24.03;57.02;98710.44;2071446;28;20415;-47
2022/05/22 02:35:08;;;;;;;;;;;;;;;24.05;56.77;98719.16;2070628;28;19968;-47
2022/05/22 02:36:13;;;;;;;;;;;;;;;24.04;56.89;98712.06;2070923;28;19940;-47
2022/05/22 02:37:14;;;;;;;;;;;;;;;24.04;56.81;98715.63;2071733;28;19937;-47
2022/05/22 02:38:16;;;;;;;;;;;;;;;24.03;56.76;98705.03;2070707;28;19930;-47
2022/05/22 02:39:19;;;;;;;;;;;;;;;24.05;56.87;98716.47;2071467;28;20318;-46
2022/05/22 02:40:21;;;;;;;;;;;;;;;24.05;56.73;98716.47;2071464;28;20013;-46
2022/05/22 02:41:25;;;;;;;;;;;;;;;24.05;56.97;98708.31;2073095;28;19929;-47
2022/05/22 02:42:26;;;;;;;;;;;;;;;24.07;56.85;98714.31;2071366;28;19982;-46
2022/05/22 02:43:27;;;;;;;;;;;;;;;24.06;56.86;98712.66;2072301;28;19925;-47
2022/05/22 02:44:28;;;;;;;;;;;;;;;24.04;56.71;98706.66;2071889;28;19929;-46
2022/05/22 02:45:30;;;;;;;;;;;;;;;24.04;56.94;98704.81;2070556;28;19932;-47
2022/05/22 02:46:31;;;;;;;;;;;;;;;24.04;56.83;98703.94;2070923;28;19961;-46
2022/05/22 02:47:34;;;;;;;;;;;;;;;24.05;56.90;98708.31;2068752;28;19949;-49
2022/05/22 02:48:34;;;;;;;;;;;;;;;24.04;56.96;98703.94;2069253;28;19929;-50
2022/05/22 02:49:36;;;;;;;;;;;;;;;24.03;56.75;98700.41;2072344;28;19929;-48
2022/05/22 02:50:37;;;;;;;;;;;;;;;24.04;56.94;98707.50;2068434;28;19925;-48
2022/05/22 02:51:39;;;;;;;;;;;;;;;24.05;56.72;98697.50;2070135;28;19929;-50
2022/05/22 02:52:40;;;;;;;;;;;;;;;24.02;56.80;98700.69;2069772;28;19930;-48
2022/05/22 02:53:41;;;;;;;;;;;;;;;24.03;56.82;98705.03;2073234;28;19929;-49
2022/05/22 02:54:43;;;;;;;;;;;;;;;24.04;56.81;98698.53;2069828;28;20382;-46
2022/05/22 02:55:45;;;;;;;;;;;;;;;24.05;56.78;98700.19;2072609;28;19984;-46
2022/05/22 02:56:45;;;;;;;;;;;;;;;24.01;56.85;98702.53;2069074;28;19987;-45
2022/05/22 02:57:47;;;;;;;;;;;;;;;24.05;56.85;98697.50;2071031;28;19949;-47
2022/05/22 02:58:49;;;;;;;;;;;;;;;24.04;56.70;98703.94;2070688;28;19933;-47
2022/05/22 02:59:50;;;;;;;;;;;;;;;24.04;56.83;98699.38;2071545;28;20590;-46
2022/05/22 03:00:51;;;;;;;;;;;;;;;24.05;56.79;98701.03;2072017;28;19972;-48
2022/05/22 03:01:52;;;;;;;;;;;;;;;24.05;56.61;98705.63;2069550;28;20621;-47
2022/05/22 03:02:53;;;;;;;;;;;;;;;24.04;56.86;98701.25;2070396;28;19926;-47
2022/05/22 03:03:54;;;;;;;;;;;;;;;24.05;56.77;98705.63;2072622;28;19972;-47
2022/05/22 03:04:55;;;;;;;;;;;;;;;24.04;56.71;98703.94;2072896;28;20180;-45
2022/05/22 03:07:27;;;;;;;;;;;;;;;24.05;56.67;98697.50;2054055;28;19929;-47
2022/05/22 03:08:32;;;;;;;;;;;;;;;24.05;56.72;98698.31;2051560;28;20528;-47
2022/05/22 03:09:33;;;;;;;;;;;;;;;24.04;56.94;98695.81;2057824;28;20878;-47
2022/05/22 03:10:36;;;;;;;;;;;;;;;24.05;56.92;98689.34;2070667;28;19932;-48
2022/05/22 03:11:37;;;;;;;;;;;;;;;24.05;56.67;98698.31;2069257;28;20410;-46
2022/05/22 03:12:39;;;;;;;;;;;;;;;24.05;56.96;98700.19;2072484;28;20587;-47
2022/05/22 03:13:40;;;;;;;;;;;;;;;24.06;56.75;98699.13;2070520;28;19925;-46
2022/05/22 03:14:42;;;;;;;;;;;;;;;24.03;56.98;98696.91;2073334;28;19969;-49
2022/05/22 03:15:43;;;;;;;;;;;;;;;24.04;56.74;98690.41;2076156;28;19936;-46
2022/05/22 03:16:44;;;;;;;;;;;;;;;24.04;56.94;98693.13;2073834;28;19967;-46
2022/05/22 03:17:45;;;;;;;;;;;;;;;24.04;56.66;98688.53;2072642;28;19930;-48
2022/05/22 03:18:46;;;;;;;;;;;;;;;24.05;56.86;98690.19;2073012;28;19981;-47
2022/05/22 03:19:47;;;;;;;;;;;;;;;24.05;56.81;98690.19;2074577;28;19925;-47
2022/05/22 03:20:49;;;;;;;;;;;;;;;24.05;56.91;98698.31;2074107;28;20379;-47
2022/05/22 03:21:50;;;;;;;;;;;;;;;24.04;56.89;98696.66;2072833;28;19932;-48
2022/05/22 03:22:51;;;;;;;;;;;;;;;24.05;56.67;98690.19;2073064;28;19925;-47
2022/05/22 03:23:52;;;;;;;;;;;;;;;24.05;56.93;98689.34;2072735;28;20518;-47
2022/05/22 03:24:53;;;;;;;;;;;;;;;24.05;56.71;98689.34;2074422;28;20005;-47
2022/05/22 03:25:55;;;;;;;;;;;;;;;24.05;56.77;98689.34;2074106;28;19955;-47
2022/05/22 03:26:57;;;;;;;;;;;;;;;24.03;56.81;98684.16;2073636;28;20686;-48
2022/05/22 03:27:57;;;;;;;;;;;;;;;24.02;57.05;98681.72;2073034;28;19925;-48
2022/05/22 03:28:59;;;;;;;;;;;;;;;24.03;56.83;98678.75;2073307;28;19929;-47
2022/05/22 03:30:00;;;;;;;;;;;;;;;24.06;56.95;98685.56;2074204;28;19933;-51
2022/05/22 03:31:01;;;;;;;;;;;;;;;24.05;56.92;98679.34;2072867;28;19932;-48
2022/05/22 03:32:02;;;;;;;;;;;;;;;24.05;56.80;98673.09;2071986;28;19929;-46
2022/05/22 03:33:03;;;;;;;;;;;;;;;24.04;56.87;98679.56;2075167;28;19932;-47
2022/05/22 03:34:04;;;;;;;;;;;;;;;24.05;57.09;98681.22;2072617;28;20403;-48
2022/05/22 03:35:06;;;;;;;;;;;;;;;24.05;57.01;98683.94;2075671;28;19929;-45
2022/05/22 03:36:07;;;;;;;;;;;;;;;24.03;57.05;98684.16;2075356;28;19933;-45
2022/05/22 03:37:09;;;;;;;;;;;;;;;24.04;57.04;98677.69;2075190;28;19929;-46
2022/05/22 03:38:09;;;;;;;;;;;;;;;24.03;57.01;98676.03;2073970;28;19956;-47
2022/05/22 03:39:11;;;;;;;;;;;;;;;24.03;57.00;98680.63;2073608;28;19925;-48
2022/05/22 03:40:13;;;;;;;;;;;;;;;24.02;56.89;98674.41;2075668;28;19929;-46
2022/05/22 03:41:16;;;;;;;;;;;;;;;24.04;56.90;98685.84;2073417;28;19940;-47
2022/05/22 03:42:16;;;;;;;;;;;;;;;24.05;56.80;98681.22;2075129;28;19972;-47
2022/05/22 03:43:18;;;;;;;;;;;;;;;24.04;56.97;98679.56;2074839;28;19929;-45
2022/05/22 03:44:19;;;;;;;;;;;;;;;24.04;56.96;98680.41;2075090;28;19925;-48
2022/05/22 03:45:21;;;;;;;;;;;;;;;24.03;56.95;98676.03;2072936;28;20032;-47
2022/05/22 03:46:21;;;;;;;;;;;;;;;24.01;57.08;98671.91;2075455;28;19932;-48
2022/05/22 03:47:23;;;;;;;;;;;;;;;24.04;57.01;98684.97;2072462;28;19931;-47
2022/05/22 03:48:23;;;;;;;;;;;;;;;24.03;56.94;98681.47;2076561;28;19929;-47
2022/05/22 03:49:25;;;;;;;;;;;;;;;24.04;56.81;98682.28;2073930;28;19925;-47
2022/05/22 03:50:26;;;;;;;;;;;;;;;24.04;56.90;98682.28;2071837;28;19937;-46
2022/05/22 03:51:27;;;;;;;;;;;;;;;24.03;57.00;98676.03;2071090;28;19933;-49
2022/05/22 03:52:28;;;;;;;;;;;;;;;24.02;56.99;98687.13;2074428;28;19929;-47
2022/05/22 03:53:29;;;;;;;;;;;;;;;24.01;56.90;98680.03;2073637;28;19925;-47
2022/05/22 03:54:30;;;;;;;;;;;;;;;24.04;56.96;98688.53;2072431;28;20964;-48
2022/05/22 03:55:31;;;;;;;;;;;;;;;24.02;56.96;98687.94;2075239;28;19939;-45
2022/05/22 03:56:33;;;;;;;;;;;;;;;24.02;56.93;98687.13;2074405;28;19972;-47
2022/05/22 03:57:35;;;;;;;;;;;;;;;24.02;57.05;98690.66;2073480;28;20292;-47
2022/05/22 03:58:36;;;;;;;;;;;;;;;24.03;56.90;98697.72;2076225;28;19929;-50
2022/05/22 03:59:38;;;;;;;;;;;;;;;24.01;57.03;98691.69;2074651;28;20410;-47
2022/05/22 04:00:39;;;;;;;;;;;;;;;24.01;56.56;98694.41;2071413;28;21127;-48
2022/05/22 04:01:40;;;;;;;;;;;;;;;24.04;57.04;98693.13;2073004;28;19930;-47
2022/05/22 04:02:41;;;;;;;;;;;;;;;24.02;56.91;98695.25;2069114;28;20431;-48
2022/05/22 04:03:42;;;;;;;;;;;;;;;24.03;57.01;98697.72;2074382;28;19933;-46
2022/05/22 04:04:43;;;;;;;;;;;;;;;24.03;57.02;98696.91;2073752;28;19968;-47
2022/05/22 04:05:45;;;;;;;;;;;;;;;24.01;56.97;98699.00;2076056;28;19932;-46
2022/05/22 04:06:45;;;;;;;;;;;;;;;24.01;57.05;98699.00;2076112;28;19926;-47
2022/05/22 04:07:48;;;;;;;;;;;;;;;23.99;57.05;98704.69;2073880;28;20020;-45
2022/05/22 04:08:49;;;;;;;;;;;;;;;24.00;57.15;98694.66;2074912;28;19929;-46
2022/05/22 04:09:51;;;;;;;;;;;;;;;23.99;56.95;98693.84;2076343;28;19933;-46
2022/05/22 04:10:52;;;;;;;;;;;;;;;24.00;57.13;98698.19;2075324;28;20015;-48
2022/05/22 04:11:55;;;;;;;;;;;;;;;24.00;57.03;98691.97;2071962;28;19937;-46
2022/05/22 04:12:55;;;;;;;;;;;;;;;24.00;57.12;98705.50;2071004;28;19929;-46
2022/05/22 04:13:57;;;;;;;;;;;;;;;24.00;57.12;98700.09;2075441;28;20379;-47
2022/05/22 04:14:57;;;;;;;;;;;;;;;24.01;56.92;98699.81;2073013;28;19949;-46
2022/05/22 04:15:59;;;;;;;;;;;;;;;24.00;57.13;98706.31;2074615;28;20588;-48
2022/05/22 04:16:59;;;;;;;;;;;;;;;24.00;56.98;98698.19;2074407;28;19935;-45
2022/05/22 04:18:01;;;;;;;;;;;;;;;24.00;57.00;98700.09;2070577;28;19932;-47
2022/05/22 04:19:02;;;;;;;;;;;;;;;23.99;57.07;98698.44;2075638;28;19925;-47
2022/05/22 04:20:04;;;;;;;;;;;;;;;23.98;57.14;98704.91;2076180;28;19935;-45
2022/05/22 04:21:05;;;;;;;;;;;;;;;23.96;57.28;98704.31;2075648;28;19932;-47
2022/05/22 04:22:06;;;;;;;;;;;;;;;23.99;57.10;98701.16;2075486;28;20469;-46
2022/05/22 04:25:50;;;;;;;;;;;;;;;23.99;57.21;98695.75;2072409;28;20383;-46
2022/05/22 04:26:52;;;;;;;;;;;;;;;23.97;57.03;98695.97;2070405;28;19996;-47
2022/05/22 04:27:54;;;;;;;;;;;;;;;24.00;57.10;98694.66;2070829;28;20008;-46
2022/05/22 04:28:56;;;;;;;;;;;;;;;24.00;57.06;98702.78;2069988;28;19925;-48
2022/05/22 04:29:56;;;;;;;;;;;;;;;23.99;56.92;98701.16;2075410;28;19987;-45
2022/05/22 04:30:58;;;;;;;;;;;;;;;23.99;57.00;98706.56;2072100;28;19929;-49
2022/05/22 04:31:59;;;;;;;;;;;;;;;23.99;57.17;98701.16;2072509;28;19925;-46
2022/05/22 04:33:01;;;;;;;;;;;;;;;23.98;56.96;98711.13;2073201;28;20015;-47
2022/05/22 04:34:01;;;;;;;;;;;;;;;23.98;57.15;98702.19;2072357;28;20016;-46
2022/05/22 04:35:03;;;;;;;;;;;;;;;23.97;57.04;98701.38;2069366;28;19929;-47
2022/05/22 04:36:04;;;;;;;;;;;;;;;23.97;57.26;98703.28;2065055;28;19930;-48
2022/05/22 04:37:06;;;;;;;;;;;;;;;23.96;57.28;98704.31;2068548;28;19925;-47
2022/05/22 04:38:06;;;;;;;;;;;;;;;23.97;57.09;98701.38;2072306;28;19934;-46
2022/05/22 04:39:10;;;;;;;;;;;;;;;23.97;56.91;98703.28;2070739;28;19956;-48
2022/05/22 04:40:12;;;;;;;;;;;;;;;23.98;57.07;98699.50;2070965;28;19929;-48
2022/05/22 04:41:13;;;;;;;;;;;;;;;23.98;57.10;98699.50;2075970;28;19976;-46
2022/05/22 04:42:14;;;;;;;;;;;;;;;23.96;57.14;98701.59;2070134;28;19934;-47
2022/05/22 04:43:17;;;;;;;;;;;;;;;23.97;57.15;98706.78;2073626;28;19934;-48
2022/05/22 04:44:17;;;;;;;;;;;;;;;23.97;57.17;98700.56;2073027;28;19925;-46
2022/05/22 04:45:19;;;;;;;;;;;;;;;23.99;57.36;98703.88;2074041;28;19925;-47
2022/05/22 04:46:20;;;;;;;;;;;;;;;23.96;57.03;98707.00;2073397;28;19972;-47
2022/05/22 04:47:21;;;;;;;;;;;;;;;23.94;57.22;98707.28;2071432;28;20384;-50
2022/05/22 04:48:23;;;;;;;;;;;;;;;23.93;57.19;98702.94;2070800;28;19936;-47
2022/05/22 04:49:24;;;;;;;;;;;;;;;23.95;57.27;98699.97;2070776;28;19987;-47
2022/05/22 04:50:26;;;;;;;;;;;;;;;23.96;57.10;98702.44;2073522;28;20005;-46
2022/05/22 04:51:27;;;;;;;;;;;;;;;23.96;57.05;98696.19;2071217;28;19984;-48
2022/05/22 04:52:28;;;;;;;;;;;;;;;23.95;57.28;98695.38;2070446;28;19925;-47
2022/05/22 04:53:30;;;;;;;;;;;;;;;23.96;57.35;98701.59;2072460;28;19964;-47
2022/05/22 04:54:31;;;;;;;;;;;;;;;23.94;57.00;98701.03;2073969;28;19993;-47
2022/05/22 04:55:32;;;;;;;;;;;;;;;23.96;57.34;98712.44;2075372;28;20442;-48
2022/05/22 04:56:34;;;;;;;;;;;;;;;23.96;57.01;98709.72;2074505;28;20009;-48
2022/05/22 04:57:35;;;;;;;;;;;;;;;23.95;57.19;98711.63;2070945;28;19933;-46
2022/05/22 04:58:38;;;;;;;;;;;;;;;23.96;57.01;98701.59;2071942;28;19934;-47
2022/05/22 04:59:38;;;;;;;;;;;;;;;23.95;57.33;98705.38;2070588;28;19929;-49
2022/05/22 05:00:41;;;;;;;;;;;;;;;23.96;57.33;98698.88;2072941;28;19960;-47
2022/05/22 05:01:43;;;;;;;;;;;;;;;23.93;57.11;98704.78;2074663;28;19972;-47
2022/05/22 05:02:43;;;;;;;;;;;;;;;23.93;57.20;98702.06;2070740;28;19926;-45
2022/05/22 05:03:45;;;;;;;;;;;;;;;23.94;57.25;98703.75;2072317;28;19992;-46
2022/05/22 05:04:46;;;;;;;;;;;;;;;23.90;57.50;98713.38;2074603;28;19926;-46
2022/05/22 05:05:55;;;;;;;;;;;;;;;23.90;57.34;98711.50;2074092;28;19925;-46
2022/05/22 05:06:58;;;;;;;;;;;;;;;23.92;57.45;98708.56;2072933;28;20501;-45
2022/05/22 05:07:59;;;;;;;;;;;;;;;23.94;57.54;98712.69;2070985;28;19925;-45
2022/05/22 05:09:00;;;;;;;;;;;;;;;23.92;57.58;98705.84;2073851;28;20007;-47
2022/05/22 05:10:01;;;;;;;;;;;;;;;23.90;57.83;98713.38;2073104;28;19926;-45
2022/05/22 05:11:02;;;;;;;;;;;;;;;23.91;57.70;98709.63;2073074;28;19929;-47
2022/05/22 05:12:04;;;;;;;;;;;;;;;23.90;58.00;98705.25;2070043;28;20005;-47
2022/05/22 05:13:06;;;;;;;;;;;;;;;23.87;58.13;98703.84;2072404;28;20386;-46
2022/05/22 05:14:09;;;;;;;;;;;;;;;23.86;58.32;98713.03;2073129;28;20872;-48
2022/05/22 05:15:11;;;;;;;;;;;;;;;23.88;58.26;98712.81;2073275;28;19968;-44
2022/05/22 05:16:13;;;;;;;;;;;;;;;23.86;58.45;98707.63;2070848;28;20822;-47
2022/05/22 05:17:15;;;;;;;;;;;;;;;23.88;58.61;98715.53;2069661;28;19991;-47
2022/05/22 05:18:17;;;;;;;;;;;;;;;23.89;58.57;98714.47;2066842;28;20599;-46
2022/05/22 05:19:18;;;;;;;;;;;;;;;23.89;58.45;98709.88;2070477;28;19925;-45
2022/05/22 05:20:23;;;;;;;;;;;;;;;23.89;58.70;98711.75;2072258;28;19929;-46
2022/05/22 05:21:24;;;;;;;;;;;;;;;23.89;58.73;98706.34;2072225;28;19926;-47
2022/05/22 05:22:25;;;;;;;;;;;;;;;23.90;58.64;98705.25;2073019;28;19972;-47
2022/05/22 05:23:26;;;;;;;;;;;;;;;23.88;58.85;98708.22;2071512;28;20514;-48
2022/05/22 05:24:28;;;;;;;;;;;;;;;23.90;58.76;98702.56;2071489;28;20299;-46
2022/05/22 05:25:29;;;;;;;;;;;;;;;23.91;58.67;98702.34;2070192;28;19967;-47
2022/05/22 05:26:31;;;;;;;;;;;;;;;23.92;58.75;98711.28;2072352;28;19925;-48